KLM1009 EHAM-EGLL
Flight info
| Callsign | KLM1009 |
|---|---|
| Flight time | 0h 40m |
| Altitude | 24000 |
| Route | IDRID L980 LOGAN |
| Aircraft | A21N/M-SDE2E3FGHIRWXY/LB1 |
Departure
| Time | 2026-05-05 19:34 |
|---|---|
| Airport | Amsterdam Airport Schiphol (EHAM) |
Arrival
| Time | 2026-05-05 20:14 |
|---|---|
| Airport | London Heathrow Airport (EGLL) |
| Time | Latitude | Longitude | Altitude | Speed | Heading |
|---|---|---|---|---|---|
| 2026-05-05 19:10 | 52.30897 | 4.77239 | 0 ft | 0 kts | 3° |
| 2026-05-05 19:20 | 52.30893 | 4.77239 | 0 ft | 2 kts | 3° |
| 2026-05-05 19:20 | 52.30878 | 4.77237 | 0 ft | 2 kts | 3° |
| 2026-05-05 19:21 | 52.30863 | 4.77236 | 0 ft | 2 kts | 15° |
| 2026-05-05 19:21 | 52.30850 | 4.77225 | 0 ft | 2 kts | 40° |
| 2026-05-05 19:21 | 52.30840 | 4.77206 | 0 ft | 1 kts | 63° |
| 2026-05-05 19:21 | 52.30837 | 4.77196 | 0 ft | 1 kts | 73° |
| 2026-05-05 19:22 | 52.30836 | 4.77190 | 0 ft | 0 kts | 70° |
| 2026-05-05 19:24 | 52.30837 | 4.77194 | 0 ft | 1 kts | 70° |
| 2026-05-05 19:24 | 52.30841 | 4.77220 | 0 ft | 3 kts | 81° |
| 2026-05-05 19:25 | 52.30841 | 4.77283 | 0 ft | 7 kts | 92° |
| 2026-05-05 19:25 | 52.30838 | 4.77383 | 0 ft | 9 kts | 93° |
| 2026-05-05 19:25 | 52.30809 | 4.77468 | 0 ft | 9 kts | 169° |
| 2026-05-05 19:25 | 52.30735 | 4.77463 | 0 ft | 11 kts | 184° |
| 2026-05-05 19:26 | 52.30651 | 4.77438 | 0 ft | 12 kts | 214° |
| 2026-05-05 19:26 | 52.30599 | 4.77316 | 0 ft | 13 kts | 239° |
| 2026-05-05 19:26 | 52.30547 | 4.77179 | 0 ft | 13 kts | 237° |
| 2026-05-05 19:26 | 52.30519 | 4.77108 | 0 ft | 7 kts | 238° |
| 2026-05-05 19:27 | 52.30491 | 4.77035 | 0 ft | 8 kts | 238° |
| 2026-05-05 19:27 | 52.30459 | 4.76951 | 0 ft | 9 kts | 238° |
| 2026-05-05 19:27 | 52.30419 | 4.76846 | 0 ft | 12 kts | 238° |
| 2026-05-05 19:27 | 52.30369 | 4.76713 | 0 ft | 15 kts | 238° |
| 2026-05-05 19:28 | 52.30308 | 4.76558 | 0 ft | 17 kts | 237° |
| 2026-05-05 19:28 | 52.30241 | 4.76383 | 0 ft | 19 kts | 238° |
| 2026-05-05 19:28 | 52.30168 | 4.76190 | 0 ft | 21 kts | 238° |
| 2026-05-05 19:28 | 52.30087 | 4.75978 | 0 ft | 22 kts | 238° |
| 2026-05-05 19:29 | 52.30002 | 4.75756 | 0 ft | 23 kts | 238° |
| 2026-05-05 19:29 | 52.29915 | 4.75528 | 0 ft | 23 kts | 238° |
| 2026-05-05 19:29 | 52.29846 | 4.75350 | 0 ft | 16 kts | 242° |
| 2026-05-05 19:29 | 52.29854 | 4.75176 | 0 ft | 17 kts | 304° |
| 2026-05-05 19:30 | 52.29941 | 4.75009 | 0 ft | 20 kts | 311° |
| 2026-05-05 19:30 | 52.30043 | 4.74821 | 0 ft | 23 kts | 313° |
| 2026-05-05 19:30 | 52.30153 | 4.74616 | 0 ft | 23 kts | 311° |
| 2026-05-05 19:30 | 52.30255 | 4.74427 | 0 ft | 17 kts | 312° |
| 2026-05-05 19:31 | 52.30329 | 4.74282 | 0 ft | 16 kts | 296° |
| 2026-05-05 19:31 | 52.30339 | 4.74122 | 0 ft | 12 kts | 256° |
| 2026-05-05 19:31 | 52.30296 | 4.74009 | 0 ft | 10 kts | 221° |
| 2026-05-05 19:31 | 52.30254 | 4.73956 | 0 ft | 2 kts | 217° |
| 2026-05-05 19:32 | 52.30242 | 4.73942 | 0 ft | 2 kts | 217° |
| 2026-05-05 19:32 | 52.30222 | 4.73917 | 0 ft | 4 kts | 217° |
| 2026-05-05 19:32 | 52.30196 | 4.73876 | 0 ft | 6 kts | 236° |
| 2026-05-05 19:32 | 52.30187 | 4.73800 | 0 ft | 8 kts | 279° |
| 2026-05-05 19:33 | 52.30197 | 4.73745 | 0 ft | 4 kts | 308° |
| 2026-05-05 19:33 | 52.30226 | 4.73736 | 0 ft | 2 kts | 5° |
| 2026-05-05 19:33 | 52.30242 | 4.73738 | 0 ft | 5 kts | 5° |
| 2026-05-05 19:33 | 52.30494 | 4.73760 | 0 ft | 76 kts | 2° |
| 2026-05-05 19:34 | 52.31274 | 4.73831 | 0 ft | 145 kts | 4° |
| 2026-05-05 19:34 | 52.32384 | 4.73948 | 409 ft | 168 kts | 6° |
| 2026-05-05 19:34 | 52.33521 | 4.73677 | 1246 ft | 171 kts | 345° |
| 2026-05-05 19:35 | 52.35863 | 4.72095 | 2554 ft | 200 kts | 343° |
| 2026-05-05 19:35 | 52.37192 | 4.71210 | 3158 ft | 217 kts | 342° |
| 2026-05-05 19:35 | 52.38570 | 4.69914 | 3677 ft | 247 kts | 318° |
| 2026-05-05 19:35 | 52.39391 | 4.67338 | 4330 ft | 273 kts | 284° |
| 2026-05-05 19:36 | 52.39245 | 4.64248 | 5272 ft | 283 kts | 251° |
| 2026-05-05 19:36 | 52.38199 | 4.61566 | 6310 ft | 285 kts | 233° |
| 2026-05-05 19:36 | 52.36978 | 4.59023 | 7309 ft | 285 kts | 234° |
| 2026-05-05 19:36 | 52.35829 | 4.56396 | 8255 ft | 287 kts | 237° |
| 2026-05-05 19:37 | 52.34748 | 4.53656 | 9149 ft | 290 kts | 239° |
| 2026-05-05 19:37 | 52.33716 | 4.50838 | 10005 ft | 293 kts | 241° |
| 2026-05-05 19:37 | 52.32704 | 4.47945 | 10664 ft | 302 kts | 242° |
| 2026-05-05 19:37 | 52.31655 | 4.44867 | 11099 ft | 320 kts | 242° |
| 2026-05-05 19:38 | 52.30562 | 4.41610 | 11504 ft | 338 kts | 243° |
| 2026-05-05 19:38 | 52.29411 | 4.38159 | 11879 ft | 356 kts | 243° |
| 2026-05-05 19:38 | 52.28195 | 4.34502 | 12195 ft | 374 kts | 242° |
| 2026-05-05 19:38 | 52.26926 | 4.30680 | 12476 ft | 391 kts | 242° |
| 2026-05-05 19:39 | 52.25617 | 4.26748 | 12985 ft | 400 kts | 242° |
| 2026-05-05 19:39 | 52.24292 | 4.22767 | 13685 ft | 404 kts | 242° |
| 2026-05-05 19:39 | 52.22954 | 4.18754 | 14421 ft | 407 kts | 242° |
| 2026-05-05 19:39 | 52.21590 | 4.14669 | 15086 ft | 411 kts | 242° |
| 2026-05-05 19:40 | 52.20229 | 4.10596 | 15750 ft | 414 kts | 241° |
| 2026-05-05 19:40 | 52.18844 | 4.06459 | 16386 ft | 418 kts | 241° |
| 2026-05-05 19:40 | 52.17448 | 4.02294 | 17004 ft | 422 kts | 241° |
| 2026-05-05 19:40 | 52.16052 | 3.98136 | 17593 ft | 426 kts | 241° |
| 2026-05-05 19:41 | 52.14625 | 3.93895 | 18171 ft | 429 kts | 241° |
| 2026-05-05 19:41 | 52.13193 | 3.89646 | 18740 ft | 433 kts | 241° |
| 2026-05-05 19:41 | 52.11743 | 3.85351 | 19327 ft | 435 kts | 241° |
| 2026-05-05 19:41 | 52.10287 | 3.81040 | 19919 ft | 436 kts | 240° |
| 2026-05-05 19:42 | 52.08837 | 3.76754 | 20479 ft | 438 kts | 240° |
| 2026-05-05 19:42 | 52.07374 | 3.72441 | 21026 ft | 440 kts | 240° |
| 2026-05-05 19:42 | 52.05894 | 3.68085 | 21548 ft | 442 kts | 240° |
| 2026-05-05 19:42 | 52.04401 | 3.63699 | 21921 ft | 448 kts | 240° |
| 2026-05-05 19:43 | 52.02891 | 3.59278 | 22123 ft | 456 kts | 240° |
| 2026-05-05 19:43 | 52.01340 | 3.54745 | 22522 ft | 460 kts | 240° |
| 2026-05-05 19:43 | 51.99694 | 3.50257 | 22979 ft | 462 kts | 237° |
| 2026-05-05 19:43 | 51.97926 | 3.45971 | 23398 ft | 463 kts | 234° |
| 2026-05-05 19:44 | 51.96033 | 3.41762 | 23789 ft | 466 kts | 233° |
| 2026-05-05 19:44 | 51.94122 | 3.37532 | 23909 ft | 467 kts | 233° |
| 2026-05-05 19:44 | 51.92213 | 3.33309 | 23911 ft | 466 kts | 232° |
| 2026-05-05 19:44 | 51.90290 | 3.29068 | 23915 ft | 466 kts | 232° |
| 2026-05-05 19:45 | 51.88372 | 3.24845 | 23914 ft | 466 kts | 232° |
| 2026-05-05 19:45 | 51.86599 | 3.20515 | 23906 ft | 468 kts | 239° |
| 2026-05-05 19:45 | 51.85262 | 3.15668 | 23919 ft | 470 kts | 249° |
| 2026-05-05 19:45 | 51.84453 | 3.10574 | 23922 ft | 471 kts | 259° |
| 2026-05-05 19:46 | 51.84049 | 3.05365 | 23918 ft | 471 kts | 263° |
| 2026-05-05 19:46 | 51.83721 | 3.00097 | 23922 ft | 471 kts | 263° |
| 2026-05-05 19:46 | 51.83403 | 2.94821 | 23917 ft | 471 kts | 263° |
| 2026-05-05 19:46 | 51.83082 | 2.89622 | 23921 ft | 471 kts | 263° |
| 2026-05-05 19:47 | 51.82746 | 2.84344 | 23919 ft | 471 kts | 263° |
| 2026-05-05 19:47 | 51.82399 | 2.79082 | 23920 ft | 472 kts | 263° |
| 2026-05-05 19:47 | 51.82048 | 2.73835 | 23923 ft | 473 kts | 263° |
| 2026-05-05 19:47 | 51.81690 | 2.68559 | 23919 ft | 474 kts | 263° |
| 2026-05-05 19:48 | 51.81331 | 2.63307 | 23921 ft | 474 kts | 263° |
| 2026-05-05 19:48 | 51.80964 | 2.58009 | 23923 ft | 473 kts | 263° |
| 2026-05-05 19:48 | 51.80600 | 2.52782 | 23926 ft | 471 kts | 263° |
| 2026-05-05 19:48 | 51.80232 | 2.47551 | 23925 ft | 469 kts | 263° |
| 2026-05-05 19:49 | 51.79867 | 2.42358 | 23928 ft | 468 kts | 263° |
| 2026-05-05 19:49 | 51.79621 | 2.38864 | 23932 ft | 469 kts | 264° |
| 2026-05-05 19:49 | 51.79123 | 2.31838 | 23927 ft | 472 kts | 263° |
| 2026-05-05 19:49 | 51.78749 | 2.26611 | 23928 ft | 473 kts | 263° |
| 2026-05-05 19:50 | 51.78367 | 2.21280 | 23927 ft | 474 kts | 263° |
| 2026-05-05 19:50 | 51.78034 | 2.15950 | 23930 ft | 474 kts | 264° |
| 2026-05-05 19:50 | 51.77730 | 2.10699 | 23940 ft | 474 kts | 264° |
| 2026-05-05 19:50 | 51.77430 | 2.05458 | 23936 ft | 473 kts | 264° |
| 2026-05-05 19:51 | 51.77120 | 2.00131 | 23935 ft | 473 kts | 264° |
| 2026-05-05 19:51 | 51.76811 | 1.94901 | 23930 ft | 473 kts | 264° |
| 2026-05-05 19:51 | 51.76496 | 1.89642 | 23931 ft | 473 kts | 264° |
| 2026-05-05 19:51 | 51.76178 | 1.84391 | 23937 ft | 473 kts | 264° |
| 2026-05-05 19:52 | 51.75855 | 1.79114 | 23936 ft | 472 kts | 264° |
| 2026-05-05 19:52 | 51.75531 | 1.73865 | 23936 ft | 471 kts | 264° |
| 2026-05-05 19:52 | 51.75205 | 1.68630 | 23936 ft | 471 kts | 265° |
| 2026-05-05 19:52 | 51.74878 | 1.63426 | 23716 ft | 469 kts | 264° |
| 2026-05-05 19:53 | 51.74549 | 1.58222 | 23461 ft | 467 kts | 264° |
| 2026-05-05 19:53 | 51.74216 | 1.53006 | 23202 ft | 467 kts | 264° |
| 2026-05-05 19:53 | 51.73882 | 1.47819 | 22793 ft | 465 kts | 265° |
| 2026-05-05 19:53 | 51.73548 | 1.42688 | 22251 ft | 462 kts | 265° |
| 2026-05-05 19:54 | 51.73217 | 1.37599 | 21621 ft | 457 kts | 265° |
| 2026-05-05 19:54 | 51.72886 | 1.32544 | 20970 ft | 452 kts | 264° |
| 2026-05-05 19:54 | 51.72558 | 1.27546 | 20311 ft | 448 kts | 264° |
| 2026-05-05 19:54 | 51.72229 | 1.22563 | 19643 ft | 444 kts | 264° |
| 2026-05-05 19:55 | 51.71902 | 1.17653 | 18982 ft | 440 kts | 264° |
| 2026-05-05 19:55 | 51.71576 | 1.12772 | 18320 ft | 436 kts | 264° |
| 2026-05-05 19:55 | 51.71249 | 1.07930 | 17662 ft | 432 kts | 264° |
| 2026-05-05 19:55 | 51.70921 | 1.03103 | 17004 ft | 427 kts | 264° |
| 2026-05-05 19:56 | 51.70598 | 0.98384 | 16378 ft | 423 kts | 264° |
| 2026-05-05 19:56 | 51.70271 | 0.93659 | 16006 ft | 419 kts | 264° |
| 2026-05-05 19:56 | 51.69948 | 0.89030 | 15943 ft | 420 kts | 264° |
| 2026-05-05 19:56 | 51.69621 | 0.84408 | 15766 ft | 415 kts | 264° |
| 2026-05-05 19:57 | 51.69299 | 0.79864 | 15182 ft | 402 kts | 264° |
| 2026-05-05 19:57 | 51.69091 | 0.76933 | 14729 ft | 394 kts | 264° |
| 2026-05-05 19:57 | 51.68686 | 0.71236 | 13838 ft | 378 kts | 264° |
| 2026-05-05 19:57 | 51.68390 | 0.67075 | 13232 ft | 367 kts | 264° |
| 2026-05-05 19:58 | 51.68104 | 0.63065 | 12656 ft | 356 kts | 264° |
| 2026-05-05 19:58 | 51.67825 | 0.59176 | 12065 ft | 343 kts | 265° |
| 2026-05-05 19:58 | 51.67559 | 0.55477 | 11474 ft | 330 kts | 265° |
| 2026-05-05 19:58 | 51.67299 | 0.51890 | 10930 ft | 317 kts | 265° |
| 2026-05-05 19:59 | 51.67048 | 0.48440 | 10389 ft | 305 kts | 265° |
| 2026-05-05 19:59 | 51.66808 | 0.45137 | 9833 ft | 296 kts | 265° |
| 2026-05-05 19:59 | 51.66570 | 0.41884 | 9360 ft | 289 kts | 265° |
| 2026-05-05 19:59 | 51.66336 | 0.38692 | 9047 ft | 284 kts | 265° |
| 2026-05-05 20:00 | 51.66107 | 0.35556 | 8952 ft | 283 kts | 265° |
| 2026-05-05 20:00 | 51.65877 | 0.32430 | 8939 ft | 284 kts | 265° |
| 2026-05-05 20:00 | 51.65646 | 0.29274 | 8912 ft | 284 kts | 265° |
| 2026-05-05 20:00 | 51.65407 | 0.26085 | 8954 ft | 284 kts | 264° |
| 2026-05-05 20:01 | 51.65167 | 0.22917 | 8971 ft | 284 kts | 264° |
| 2026-05-05 20:01 | 51.64931 | 0.19791 | 8971 ft | 284 kts | 264° |
| 2026-05-05 20:01 | 51.64694 | 0.16660 | 8948 ft | 283 kts | 264° |
| 2026-05-05 20:01 | 51.64467 | 0.13512 | 8918 ft | 280 kts | 265° |
| 2026-05-05 20:02 | 51.64269 | 0.10462 | 8786 ft | 267 kts | 266° |
| 2026-05-05 20:02 | 51.64081 | 0.07559 | 8628 ft | 258 kts | 266° |
| 2026-05-05 20:02 | 51.63896 | 0.04739 | 8493 ft | 249 kts | 266° |
| 2026-05-05 20:02 | 51.63712 | 0.01988 | 8348 ft | 246 kts | 266° |
| 2026-05-05 20:03 | 51.63527 | -0.00751 | 8179 ft | 246 kts | 266° |
| 2026-05-05 20:03 | 51.63346 | -0.03450 | 8016 ft | 245 kts | 266° |
| 2026-05-05 20:03 | 51.63161 | -0.06183 | 7969 ft | 245 kts | 266° |
| 2026-05-05 20:03 | 51.62978 | -0.08890 | 7963 ft | 245 kts | 266° |
| 2026-05-05 20:04 | 51.62793 | -0.11611 | 7957 ft | 246 kts | 266° |
| 2026-05-05 20:04 | 51.62608 | -0.14348 | 7961 ft | 246 kts | 266° |
| 2026-05-05 20:04 | 51.62424 | -0.17069 | 7961 ft | 245 kts | 266° |
| 2026-05-05 20:04 | 51.62239 | -0.19813 | 7951 ft | 245 kts | 266° |
| 2026-05-05 20:05 | 51.62055 | -0.22553 | 7960 ft | 245 kts | 266° |
| 2026-05-05 20:05 | 51.61872 | -0.25273 | 7956 ft | 246 kts | 266° |
| 2026-05-05 20:05 | 51.61686 | -0.28004 | 7959 ft | 246 kts | 266° |
| 2026-05-05 20:05 | 51.61499 | -0.30733 | 7960 ft | 247 kts | 266° |
| 2026-05-05 20:06 | 51.61351 | -0.33475 | 7956 ft | 246 kts | 268° |
| 2026-05-05 20:06 | 51.61232 | -0.36255 | 7954 ft | 249 kts | 269° |
| 2026-05-05 20:06 | 51.61117 | -0.39018 | 7952 ft | 249 kts | 269° |
| 2026-05-05 20:06 | 51.60999 | -0.41779 | 7956 ft | 249 kts | 268° |
| 2026-05-05 20:07 | 51.60878 | -0.44572 | 7958 ft | 249 kts | 268° |
| 2026-05-05 20:07 | 51.60755 | -0.47335 | 7960 ft | 249 kts | 268° |
| 2026-05-05 20:07 | 51.60630 | -0.50128 | 7957 ft | 249 kts | 268° |
| 2026-05-05 20:07 | 51.60504 | -0.52897 | 7899 ft | 250 kts | 268° |
| 2026-05-05 20:08 | 51.60377 | -0.55668 | 7744 ft | 249 kts | 268° |
| 2026-05-05 20:08 | 51.60249 | -0.58439 | 7573 ft | 248 kts | 268° |
| 2026-05-05 20:08 | 51.60120 | -0.61220 | 7334 ft | 247 kts | 268° |
| 2026-05-05 20:08 | 51.59994 | -0.63941 | 7066 ft | 246 kts | 268° |
| 2026-05-05 20:09 | 51.59850 | -0.66671 | 6910 ft | 246 kts | 266° |
| 2026-05-05 20:09 | 51.59679 | -0.69422 | 6556 ft | 248 kts | 266° |
| 2026-05-05 20:09 | 51.59388 | -0.72143 | 6207 ft | 249 kts | 249° |
| 2026-05-05 20:09 | 51.58314 | -0.74292 | 5722 ft | 253 kts | 211° |
| 2026-05-05 20:10 | 51.56625 | -0.74993 | 5250 ft | 252 kts | 174° |
| 2026-05-05 20:10 | 51.54974 | -0.74252 | 4848 ft | 246 kts | 150° |
| 2026-05-05 20:10 | 51.53483 | -0.72984 | 4526 ft | 241 kts | 149° |
| 2026-05-05 20:10 | 51.52020 | -0.71770 | 4189 ft | 237 kts | 150° |
| 2026-05-05 20:11 | 51.50534 | -0.70604 | 3703 ft | 239 kts | 151° |
| 2026-05-05 20:11 | 51.49043 | -0.69452 | 3206 ft | 239 kts | 145° |
| 2026-05-05 20:11 | 51.47905 | -0.67600 | 2674 ft | 232 kts | 112° |
| 2026-05-05 20:11 | 51.47554 | -0.65207 | 2182 ft | 215 kts | 87° |
| 2026-05-05 20:12 | 51.47641 | -0.62913 | 1838 ft | 201 kts | 81° |
| 2026-05-05 20:12 | 51.47720 | -0.60775 | 1656 ft | 184 kts | 84° |
| 2026-05-05 20:12 | 51.47735 | -0.58817 | 1408 ft | 170 kts | 86° |
| 2026-05-05 20:12 | 51.47726 | -0.56979 | 1125 ft | 160 kts | 87° |
| 2026-05-05 20:13 | 51.47708 | -0.55275 | 917 ft | 146 kts | 86° |
| 2026-05-05 20:13 | 51.47716 | -0.53663 | 730 ft | 142 kts | 84° |
| 2026-05-05 20:13 | 51.47743 | -0.52095 | 563 ft | 143 kts | 86° |
| 2026-05-05 20:13 | 51.47741 | -0.50507 | 379 ft | 142 kts | 86° |
| 2026-05-05 20:14 | 51.47746 | -0.48930 | 191 ft | 140 kts | 86° |
| 2026-05-05 20:14 | 51.47750 | -0.47403 | 93 ft | 129 kts | 85° |
| 2026-05-05 20:14 | 51.47758 | -0.46221 | 92 ft | 83 kts | 89° |
| 2026-05-05 20:14 | 51.47760 | -0.45546 | 92 ft | 45 kts | 88° |
| 2026-05-05 20:15 | 51.47758 | -0.45268 | 92 ft | 12 kts | 97° |